Impacts TAF Board INFO
FOR SITUATIONAL AWARENESS. NOT TO BE USED FOR FLIGHT PLANNING PURPOSES.
IDs:

KSLC - Salt Lake City Intl, UT, US

Issued at 1140 UTC 16 Dec 2017
Updated at 1241 UTC 16 Dec 2017
Potential Impact None Slight Moderate High
Time1154Z 16/13Z 16/14Z 16/15Z 16/16Z 16/17Z 16/18Z 16/19Z 16/20Z 16/21Z 16/22Z 16/23Z 17/00Z 17/01Z>>
Type OBS PRVL PRVL PRVL PRVL PRVL PRVL PRVL PRVL PRVL PRVL PRVL PRVL PRVL
VIS 5 5 5 2 2 2 2 2 >6 >6 >6 >6 >6 >6
CIG 100 90 90 18 18 18 18 18 35 35 35 35 35 35
Cover OVC BKN BKN BKN BKN BKN BKN BKN BKN BKN BKN BKN BKN BKN
FltCat MVFR MVFR MVFR IFR IFR IFR IFR IFR VFR VFR VFR VFR VFR VFR
WX HZ BR VCSH BR VCSH -SHSN -SHSN -SHSN -SHSN -SHSN VCSH VCSH VCSH VCSH VCSH VCSH
WDir 310 300 300 330 330 330 330 330 330 330 330 330 330 330
WSpd 8 7 7 9 9 9 9 9 9 9 9 9 9 9
WGst -- -- -- -- -- -- -- -- -- -- -- -- -- --

Raw TAF
KSLC 161140Z 1612/1718 30007KT 5SM BR VCSH SCT030 BKN090
  FM161500 33009KT 2SM -SHSN SCT009 BKN018
  FM162000 33009KT P6SM VCSH SCT020 BKN035
  FM170300 33008KT P6SM BKN040 OVC070


Raw METAR
KSLC 161154Z 31008KT 5SM HZ FEW070 OVC100 01/M02 A2987 RMK AO2 SLP121 T00061022 10011 21006 58010
KSLC 161054Z 32007KT 5SM HZ FEW065 OVC090 01/M02 A2989 RMK AO2 SLP116 T00061022
KSLC 160954Z 22005KT 5SM HZ FEW080 OVC100 01/M02 A2989 RMK AO2 SLP121 T00061022

METAR Board
Radar Display
Forecast Discussion

FOR SITUATIONAL AWARENESS. NOT TO BE USED FOR FLIGHT PLANNING PURPOSES.